Time,TemperatureF,DewpointF,PressureIn,WindDirection,WindDirectionDegrees,WindSpeedMPH,WindSpeedGustMPH,Humidity,HourlyPrecipIn,Conditions,Clouds,dailyrainin,SoftwareType,DateUTC
2013-05-21 00:02:00,63.9,60.0,30.00,East,98,0.0,0.0,87,0.00,,,0.04,Wunderground v.1.15,2013-05-21 04:02:00,
2013-05-21 00:04:00,63.9,60.0,30.00,East,98,0.0,0.0,87,0.00,,,0.00,Wunderground v.1.15,2013-05-21 04:04:00,
2013-05-21 00:06:00,63.8,60.2,30.00,East,98,0.0,0.0,88,0.00,,,0.00,Wunderground v.1.15,2013-05-21 04:06:00,
2013-05-21 00:08:00,63.8,60.2,30.00,East,98,0.0,0.0,88,0.00,,,0.00,Wunderground v.1.15,2013-05-21 04:08:00,
2013-05-21 00:10:00,63.7,60.1,30.00,East,98,0.0,0.0,88,0.00,,,0.00,Wunderground v.1.15,2013-05-21 04:10:00,
2013-05-21 00:16:00,63.6,60.0,30.00,East,98,0.0,0.0,88,0.00,,,0.00,Wunderground v.1.15,2013-05-21 04:16:00,
2013-05-21 00:22:00,63.4,59.8,30.00,East,98,0.0,0.0,88,0.00,,,0.00,Wunderground v.1.15,2013-05-21 04:22:00,
2013-05-21 00:28:00,63.3,59.7,30.00,East,98,0.0,0.0,88,0.00,,,0.00,Wunderground v.1.15,2013-05-21 04:28:00,
2013-05-21 00:34:00,63.2,59.6,30.00,East,98,0.0,0.0,88,0.00,,,0.00,Wunderground v.1.15,2013-05-21 04:34:00,
2013-05-21 00:40:00,63.2,59.6,29.99,East,98,0.0,0.0,88,0.00,,,0.00,Wunderground v.1.15,2013-05-21 04:40:00,
2013-05-21 00:46:00,63.0,59.4,29.99,East,98,0.0,0.0,88,0.00,,,0.00,Wunderground v.1.15,2013-05-21 04:46:00,
2013-05-21 00:52:00,62.9,59.3,30.00,East,98,0.0,0.0,88,0.00,,,0.00,Wunderground v.1.15,2013-05-21 04:52:00,
2013-05-21 00:58:00,62.9,59.3,29.99,East,98,0.0,0.0,88,0.00,,,0.00,Wunderground v.1.15,2013-05-21 04:58:00,
2013-05-21 01:04:00,62.8,59.2,29.99,East,98,0.0,0.0,88,0.00,,,0.00,Wunderground v.1.15,2013-05-21 05:04:00,
2013-05-21 01:10:00,62.6,59.0,29.99,East,98,0.0,0.0,88,0.00,,,0.00,Wunderground v.1.15,2013-05-21 05:10:00,
2013-05-21 01:16:00,62.5,58.9,29.99,East,98,0.0,0.0,88,0.00,,,0.00,Wunderground v.1.15,2013-05-21 05:16:00,
2013-05-21 01:22:00,62.4,59.1,29.99,East,98,0.0,0.0,89,0.00,,,0.00,Wunderground v.1.15,2013-05-21 05:22:00,
2013-05-21 01:28:00,62.3,59.0,29.99,East,98,0.0,0.0,89,0.00,,,0.00,Wunderground v.1.15,2013-05-21 05:28:00,
2013-05-21 01:34:00,62.2,58.9,29.99,East,98,0.0,0.0,89,0.00,,,0.00,Wunderground v.1.15,2013-05-21 05:34:00,
2013-05-21 01:40:00,62.1,58.8,29.99,East,98,0.0,0.0,89,0.00,,,0.00,Wunderground v.1.15,2013-05-21 05:40:00,
2013-05-21 01:46:00,62.1,58.8,29.99,East,98,0.0,0.0,89,0.00,,,0.00,Wunderground v.1.15,2013-05-21 05:46:00,
2013-05-21 01:52:00,62.0,58.7,29.98,East,98,0.0,0.0,89,0.00,,,0.00,Wunderground v.1.15,2013-05-21 05:52:00,
2013-05-21 01:58:00,61.9,58.6,29.98,East,98,0.0,0.0,89,0.00,,,0.00,Wunderground v.1.15,2013-05-21 05:58:00,
2013-05-21 02:04:00,61.7,58.4,29.98,East,98,0.0,0.0,89,0.00,,,0.00,Wunderground v.1.15,2013-05-21 06:04:00,
2013-05-21 02:10:00,61.6,58.3,29.98,East,98,0.0,0.0,89,0.00,,,0.00,Wunderground v.1.15,2013-05-21 06:10:00,
2013-05-21 02:16:00,61.6,58.3,29.98,East,98,0.0,0.0,89,0.00,,,0.00,Wunderground v.1.15,2013-05-21 06:16:00,
2013-05-21 02:22:00,61.5,58.2,29.98,East,98,0.0,0.0,89,0.00,,,0.00,Wunderground v.1.15,2013-05-21 06:22:00,
2013-05-21 02:28:00,61.4,58.1,29.97,East,98,0.0,0.0,89,0.00,,,0.00,Wunderground v.1.15,2013-05-21 06:28:00,
2013-05-21 02:34:00,61.4,58.1,29.97,East,98,0.0,0.0,89,0.00,,,0.00,Wunderground v.1.15,2013-05-21 06:34:00,
2013-05-21 02:40:00,61.3,58.0,29.97,East,98,0.0,0.0,89,0.00,,,0.00,Wunderground v.1.15,2013-05-21 06:40:00,
2013-05-21 02:46:00,61.2,57.9,29.97,East,98,0.0,0.0,89,0.00,,,0.00,Wunderground v.1.15,2013-05-21 06:46:00,
2013-05-21 02:52:00,61.0,58.0,29.97,East,98,0.0,0.0,90,0.00,,,0.00,Wunderground v.1.15,2013-05-21 06:52:00,
2013-05-21 02:58:00,60.9,57.6,29.96,East,98,0.0,0.0,89,0.00,,,0.00,Wunderground v.1.15,2013-05-21 06:58:00,
2013-05-21 03:04:00,60.8,57.5,29.96,East,98,0.0,0.0,89,0.00,,,0.00,Wunderground v.1.15,2013-05-21 07:04:00,
2013-05-21 03:10:00,60.7,57.7,29.95,East,98,0.0,0.0,90,0.00,,,0.00,Wunderground v.1.15,2013-05-21 07:10:00,
2013-05-21 03:16:00,60.6,57.7,29.95,East,98,0.0,0.0,90,0.00,,,0.00,Wunderground v.1.15,2013-05-21 07:16:00,
2013-05-21 03:22:00,60.5,57.6,29.95,East,98,0.0,0.0,90,0.00,,,0.00,Wunderground v.1.15,2013-05-21 07:22:00,
2013-05-21 03:28:00,60.4,57.5,29.95,East,98,0.0,0.0,90,0.00,,,0.00,Wunderground v.1.15,2013-05-21 07:28:00,
2013-05-21 03:34:00,60.3,57.4,29.95,East,98,0.0,0.0,90,0.00,,,0.00,Wunderground v.1.15,2013-05-21 07:34:00,
2013-05-21 03:40:00,60.2,57.3,29.95,East,98,0.0,0.0,90,0.00,,,0.00,Wunderground v.1.15,2013-05-21 07:40:00,
2013-05-21 03:46:00,60.2,57.3,29.95,East,98,0.0,0.0,90,0.00,,,0.00,Wunderground v.1.15,2013-05-21 07:46:00,
2013-05-21 03:52:00,60.1,57.2,29.96,East,98,0.0,0.0,90,0.00,,,0.00,Wunderground v.1.15,2013-05-21 07:52:00,
2013-05-21 03:58:00,60.0,57.1,29.95,East,98,0.0,0.0,90,0.00,,,0.00,Wunderground v.1.15,2013-05-21 07:58:00,
2013-05-21 04:04:00,60.0,57.1,29.96,East,98,0.0,0.0,90,0.00,,,0.00,Wunderground v.1.15,2013-05-21 08:04:00,
2013-05-21 04:10:00,60.0,57.1,29.96,East,98,0.0,0.0,90,0.00,,,0.00,Wunderground v.1.15,2013-05-21 08:10:00,
2013-05-21 04:16:00,60.0,57.1,29.96,East,98,0.0,0.0,90,0.00,,,0.00,Wunderground v.1.15,2013-05-21 08:16:00,
2013-05-21 04:22:00,60.0,57.1,29.96,East,98,0.0,0.0,90,0.00,,,0.00,Wunderground v.1.15,2013-05-21 08:22:00,
2013-05-21 04:28:00,59.9,57.0,29.96,East,98,0.0,0.0,90,0.00,,,0.00,Wunderground v.1.15,2013-05-21 08:28:00,
2013-05-21 04:34:00,59.8,56.9,29.96,East,98,0.0,0.0,90,0.00,,,0.00,Wunderground v.1.15,2013-05-21 08:34:00,
2013-05-21 04:40:00,59.9,57.0,29.97,East,98,0.0,0.0,90,0.00,,,0.00,Wunderground v.1.15,2013-05-21 08:40:00,
2013-05-21 04:46:00,59.8,56.9,29.97,East,98,0.0,0.0,90,0.00,,,0.00,Wunderground v.1.15,2013-05-21 08:46:00,
2013-05-21 04:52:00,59.7,56.8,29.97,East,98,0.0,0.0,90,0.00,,,0.00,Wunderground v.1.15,2013-05-21 08:52:00,
2013-05-21 04:58:00,59.6,56.7,29.97,East,98,0.0,0.0,90,0.00,,,0.00,Wunderground v.1.15,2013-05-21 08:58:00,
2013-05-21 05:04:00,59.4,56.5,29.97,East,98,0.0,0.0,90,0.00,,,0.00,Wunderground v.1.15,2013-05-21 09:04:00,
2013-05-21 05:10:00,59.1,56.2,29.98,East,98,0.0,0.0,90,0.00,,,0.00,Wunderground v.1.15,2013-05-21 09:10:00,
2013-05-21 05:16:00,59.0,56.1,29.98,East,98,0.0,0.0,90,0.00,,,0.00,Wunderground v.1.15,2013-05-21 09:16:00,
2013-05-21 05:22:00,59.0,56.1,29.98,East,98,0.0,0.0,90,0.00,,,0.00,Wunderground v.1.15,2013-05-21 09:22:00,
2013-05-21 05:28:00,59.0,56.1,29.98,East,98,0.0,0.0,90,0.00,,,0.00,Wunderground v.1.15,2013-05-21 09:28:00,
2013-05-21 05:34:00,59.0,56.1,29.98,East,98,0.0,0.0,90,0.00,,,0.00,Wunderground v.1.15,2013-05-21 09:34:00,
2013-05-21 05:40:00,59.0,56.1,29.98,East,98,0.0,0.0,90,0.00,,,0.00,Wunderground v.1.15,2013-05-21 09:40:00,
2013-05-21 05:46:00,59.0,56.1,29.98,East,98,0.0,0.0,90,0.00,,,0.00,Wunderground v.1.15,2013-05-21 09:46:00,
2013-05-21 05:52:00,59.0,56.1,29.97,East,98,0.0,0.0,90,0.00,,,0.00,Wunderground v.1.15,2013-05-21 09:52:00,
2013-05-21 05:58:00,59.0,56.4,29.97,East,98,0.0,0.0,91,0.00,,,0.00,Wunderground v.1.15,2013-05-21 09:58:00,
2013-05-21 06:04:00,59.0,56.4,29.97,East,98,0.0,0.0,91,0.00,,,0.00,Wunderground v.1.15,2013-05-21 10:04:00,
2013-05-21 06:10:00,59.0,56.4,29.97,East,98,0.0,0.0,91,0.00,,,0.00,Wunderground v.1.15,2013-05-21 10:10:00,
2013-05-21 06:16:00,59.2,56.6,29.98,East,98,0.0,0.0,91,0.00,,,0.00,Wunderground v.1.15,2013-05-21 10:16:00,
2013-05-21 06:22:00,59.5,56.9,29.98,East,98,0.0,0.0,91,0.00,,,0.00,Wunderground v.1.15,2013-05-21 10:22:00,
2013-05-21 06:28:00,59.8,57.2,29.99,East,98,0.0,0.0,91,0.00,,,0.00,Wunderground v.1.15,2013-05-21 10:28:00,
2013-05-21 06:34:00,60.2,57.6,29.99,East,98,0.0,0.0,91,0.00,,,0.00,Wunderground v.1.15,2013-05-21 10:34:00,
2013-05-21 06:40:00,60.5,57.9,30.00,East,98,0.0,0.0,91,0.00,,,0.00,Wunderground v.1.15,2013-05-21 10:40:00,
2013-05-21 06:46:00,60.8,58.2,29.99,East,98,0.0,0.0,91,0.00,,,0.00,Wunderground v.1.15,2013-05-21 10:46:00,
2013-05-21 06:52:00,61.1,58.5,29.98,East,98,0.0,0.0,91,0.00,,,0.00,Wunderground v.1.15,2013-05-21 10:52:00,
2013-05-21 06:58:00,61.4,58.7,29.98,East,98,0.0,0.0,91,0.00,,,0.00,Wunderground v.1.15,2013-05-21 10:58:00,
2013-05-21 07:04:00,62.0,59.6,29.98,East,98,0.0,0.0,92,0.00,,,0.00,Wunderground v.1.15,2013-05-21 11:04:00,
2013-05-21 07:10:00,62.5,60.1,29.97,East,98,0.0,0.0,92,0.00,,,0.00,Wunderground v.1.15,2013-05-21 11:10:00,
2013-05-21 07:16:00,62.9,60.2,29.98,East,98,0.0,0.0,91,0.00,,,0.00,Wunderground v.1.15,2013-05-21 11:16:00,
2013-05-21 07:22:00,62.9,60.2,29.98,East,98,0.0,0.0,91,0.00,,,0.00,Wunderground v.1.15,2013-05-21 11:22:00,
2013-05-21 07:28:00,63.0,60.0,29.97,East,98,0.0,0.0,90,0.00,,,0.00,Wunderground v.1.15,2013-05-21 11:28:00,
2013-05-21 07:34:00,63.1,60.1,29.96,East,98,0.0,0.0,90,0.00,,,0.00,Wunderground v.1.15,2013-05-21 11:34:00,
2013-05-21 07:40:00,63.1,60.1,29.96,East,98,0.0,0.0,90,0.00,,,0.00,Wunderground v.1.15,2013-05-21 11:40:00,
2013-05-21 07:46:00,63.2,60.2,29.97,East,98,0.0,0.0,90,0.00,,,0.00,Wunderground v.1.15,2013-05-21 11:46:00,
2013-05-21 07:52:00,63.2,59.9,29.98,East,98,0.0,0.0,89,0.00,,,0.00,Wunderground v.1.15,2013-05-21 11:52:00,
2013-05-21 07:58:00,63.3,60.0,29.96,East,98,0.0,0.0,89,0.00,,,0.00,Wunderground v.1.15,2013-05-21 11:58:00,
2013-05-21 08:04:00,63.2,59.9,29.97,East,98,0.0,1.0,89,0.00,,,0.00,Wunderground v.1.15,2013-05-21 12:04:00,
2013-05-21 08:10:00,63.2,59.9,29.96,East,80,0.0,0.0,89,0.00,,,0.00,Wunderground v.1.15,2013-05-21 12:10:00,
2013-05-21 08:16:00,63.1,59.5,29.97,East,79,0.0,1.0,88,0.00,,,0.00,Wunderground v.1.15,2013-05-21 12:16:00,
2013-05-21 08:22:00,63.0,59.4,29.97,ENE,78,0.0,0.0,88,0.00,,,0.00,Wunderground v.1.15,2013-05-21 12:22:00,
2013-05-21 08:28:00,63.1,59.5,29.98,East,79,0.0,0.0,88,0.00,,,0.00,Wunderground v.1.15,2013-05-21 12:28:00,
2013-05-21 08:34:00,63.3,59.7,29.98,East,80,0.0,0.0,88,0.00,,,0.00,Wunderground v.1.15,2013-05-21 12:34:00,
2013-05-21 08:40:00,63.6,60.0,29.98,East,80,0.0,0.0,88,0.00,,,0.00,Wunderground v.1.15,2013-05-21 12:40:00,
2013-05-21 08:46:00,64.0,60.1,29.98,East,80,0.0,0.0,87,0.00,,,0.00,Wunderground v.1.15,2013-05-21 12:46:00,
2013-05-21 08:52:00,64.2,59.9,29.98,East,80,0.0,0.0,86,0.00,,,0.00,Wunderground v.1.15,2013-05-21 12:52:00,
2013-05-21 08:58:00,64.4,60.1,29.97,East,80,0.0,0.0,86,0.00,,,0.00,Wunderground v.1.15,2013-05-21 12:58:00,
2013-05-21 09:04:00,64.3,60.0,29.98,East,80,0.0,0.0,86,0.00,,,0.00,Wunderground v.1.15,2013-05-21 13:04:00,
2013-05-21 09:10:00,64.4,59.8,29.98,East,80,0.0,0.0,85,0.00,,,0.00,Wunderground v.1.15,2013-05-21 13:10:00,
2013-05-21 09:16:00,64.8,60.5,29.98,East,80,0.0,0.0,86,0.00,,,0.00,Wunderground v.1.15,2013-05-21 13:16:00,
2013-05-21 09:22:00,65.7,60.7,29.97,East,80,0.0,0.0,84,0.00,,,0.00,Wunderground v.1.15,2013-05-21 13:22:00,
2013-05-21 09:28:00,66.2,60.9,29.97,East,79,0.0,0.0,83,0.00,,,0.00,Wunderground v.1.15,2013-05-21 13:28:00,
2013-05-21 09:34:00,66.8,61.1,29.97,East,80,0.0,0.0,82,0.00,,,0.00,Wunderground v.1.15,2013-05-21 13:34:00,
2013-05-21 09:40:00,67.2,61.5,29.97,East,79,0.0,0.0,82,0.00,,,0.00,Wunderground v.1.15,2013-05-21 13:40:00,
2013-05-21 09:46:00,67.4,61.0,29.96,East,80,0.0,0.0,80,0.00,,,0.00,Wunderground v.1.15,2013-05-21 13:46:00,
2013-05-21 09:52:00,67.9,61.9,29.96,East,80,0.0,0.0,81,0.00,,,0.00,Wunderground v.1.15,2013-05-21 13:52:00,
2013-05-21 09:58:00,68.6,61.8,29.95,East,98,0.0,3.0,79,0.00,,,0.00,Wunderground v.1.15,2013-05-21 13:58:00,
2013-05-21 10:04:00,69.7,62.5,29.95,East,98,0.0,0.0,78,0.00,,,0.00,Wunderground v.1.15,2013-05-21 14:04:00,
2013-05-21 10:10:00,70.6,62.3,29.95,East,99,0.0,0.0,75,0.00,,,0.00,Wunderground v.1.15,2013-05-21 14:10:00,
2013-05-21 10:16:00,71.1,62.8,29.95,East,99,0.0,0.0,75,0.00,,,0.00,Wunderground v.1.15,2013-05-21 14:16:00,
2013-05-21 10:22:00,71.4,62.7,29.95,East,96,0.0,0.0,74,0.00,,,0.00,Wunderground v.1.15,2013-05-21 14:22:00,
2013-05-21 10:28:00,72.0,62.9,29.95,East,98,0.0,0.0,73,0.00,,,0.00,Wunderground v.1.15,2013-05-21 14:28:00,
2013-05-21 10:34:00,72.5,62.6,29.94,East,98,0.0,0.0,71,0.00,,,0.00,Wunderground v.1.15,2013-05-21 14:34:00,
2013-05-21 10:40:00,73.0,63.4,29.93,East,98,0.0,0.0,72,0.00,,,0.00,Wunderground v.1.15,2013-05-21 14:40:00,
2013-05-21 10:46:00,73.8,63.8,29.94,East,96,0.0,0.0,71,0.00,,,0.00,Wunderground v.1.15,2013-05-21 14:46:00,
2013-05-21 10:52:00,74.3,63.9,29.93,East,97,0.0,0.0,70,0.00,,,0.00,Wunderground v.1.15,2013-05-21 14:52:00,
2013-05-21 10:58:00,74.1,63.3,29.93,East,96,0.0,1.0,69,0.00,,,0.00,Wunderground v.1.15,2013-05-21 14:58:00,
2013-05-21 11:04:00,74.6,64.2,29.93,East,101,0.0,0.0,70,0.00,,,0.00,Wunderground v.1.15,2013-05-21 15:04:00,
2013-05-21 11:10:00,74.9,63.6,29.93,East,101,0.0,0.0,68,0.00,,,0.00,Wunderground v.1.15,2013-05-21 15:10:00,
2013-05-21 11:16:00,75.5,64.6,29.94,East,101,0.0,0.0,69,0.00,,,0.00,Wunderground v.1.15,2013-05-21 15:16:00,
2013-05-21 11:22:00,75.7,64.4,29.93,East,101,0.0,0.0,68,0.00,,,0.00,Wunderground v.1.15,2013-05-21 15:22:00,
2013-05-21 11:28:00,75.3,64.4,29.93,East,101,0.0,0.0,69,0.00,,,0.00,Wunderground v.1.15,2013-05-21 15:28:00,
2013-05-21 11:34:00,75.3,65.2,29.93,East,101,0.0,0.0,71,0.00,,,0.00,Wunderground v.1.15,2013-05-21 15:34:00,
2013-05-21 11:40:00,76.0,65.9,29.93,East,101,0.0,0.0,71,0.00,,,0.00,Wunderground v.1.15,2013-05-21 15:40:00,
2013-05-21 11:46:00,77.1,65.3,29.92,East,101,0.0,0.0,67,0.00,,,0.00,Wunderground v.1.15,2013-05-21 15:46:00,
2013-05-21 11:52:00,77.6,65.3,29.92,East,101,0.0,0.0,66,0.00,,,0.00,Wunderground v.1.15,2013-05-21 15:52:00,
2013-05-21 11:58:00,78.1,65.4,29.92,East,101,0.0,0.0,65,0.00,,,0.00,Wunderground v.1.15,2013-05-21 15:58:00,
2013-05-21 12:04:00,78.3,65.6,29.92,East,101,0.0,0.0,65,0.00,,,0.00,Wunderground v.1.15,2013-05-21 16:04:00,
2013-05-21 12:10:00,77.7,65.4,29.92,SSE,157,0.0,0.0,66,0.00,,,0.00,Wunderground v.1.15,2013-05-21 16:10:00,
2013-05-21 12:16:00,78.1,65.4,29.91,SE,139,0.0,1.0,65,0.00,,,0.00,Wunderground v.1.15,2013-05-21 16:16:00,
2013-05-21 12:22:00,78.4,65.2,29.91,SE,137,0.0,1.0,64,0.00,,,0.00,Wunderground v.1.15,2013-05-21 16:22:00,
2013-05-21 12:28:00,78.7,65.0,29.91,ESE,119,0.0,1.0,63,0.00,,,0.00,Wunderground v.1.15,2013-05-21 16:28:00,
2013-05-21 12:34:00,78.3,65.6,29.90,West,279,0.0,2.0,65,0.00,,,0.00,Wunderground v.1.15,2013-05-21 16:34:00,
2013-05-21 12:40:00,78.8,65.6,29.89,West,277,0.0,2.0,64,0.00,,,0.00,Wunderground v.1.15,2013-05-21 16:40:00,
2013-05-21 12:46:00,78.7,65.5,29.90,WSW,244,1.0,2.0,64,0.00,,,0.00,Wunderground v.1.15,2013-05-21 16:46:00,
2013-05-21 12:52:00,78.7,65.5,29.90,NW,309,0.0,1.0,64,0.00,,,0.00,Wunderground v.1.15,2013-05-21 16:52:00,
2013-05-21 12:58:00,79.6,65.9,29.90,WNW,298,0.0,1.0,63,0.00,,,0.00,Wunderground v.1.15,2013-05-21 16:58:00,
2013-05-21 13:04:00,80.5,65.8,29.90,West,265,0.0,0.0,61,0.00,,,0.00,Wunderground v.1.15,2013-05-21 17:04:00,
2013-05-21 13:10:00,80.8,65.6,29.90,ENE,59,0.0,0.0,60,0.00,,,0.00,Wunderground v.1.15,2013-05-21 17:10:00,
2013-05-21 13:16:00,80.0,65.3,29.90,East,94,0.0,0.0,61,0.00,,,0.00,Wunderground v.1.15,2013-05-21 17:16:00,
2013-05-21 13:22:00,80.0,65.8,29.90,SW,232,0.0,0.0,62,0.00,,,0.00,Wunderground v.1.15,2013-05-21 17:22:00,
2013-05-21 13:28:00,80.5,65.8,29.90,SW,225,0.0,0.0,61,0.00,,,0.00,Wunderground v.1.15,2013-05-21 17:28:00,
2013-05-21 13:34:00,80.9,65.7,29.90,South,190,0.0,0.0,60,0.00,,,0.00,Wunderground v.1.15,2013-05-21 17:34:00,
2013-05-21 13:40:00,81.2,66.5,29.90,SW,221,0.0,0.0,61,0.00,,,0.00,Wunderground v.1.15,2013-05-21 17:40:00,
2013-05-21 13:46:00,80.9,66.2,29.90,ESE,107,1.0,2.0,61,0.00,,,0.00,Wunderground v.1.15,2013-05-21 17:46:00,
2013-05-21 13:52:00,81.8,66.6,29.90,SE,129,0.0,1.0,60,0.00,,,0.00,Wunderground v.1.15,2013-05-21 17:52:00,
2013-05-21 13:58:00,82.4,66.6,29.90,SSE,152,0.0,1.0,59,0.00,,,0.00,Wunderground v.1.15,2013-05-21 17:58:00,
2013-05-21 14:04:00,82.6,66.3,29.90,ESE,103,0.0,0.0,58,0.00,,,0.00,Wunderground v.1.15,2013-05-21 18:04:00,
2013-05-21 14:10:00,83.0,67.2,29.89,SE,146,0.0,0.0,59,0.00,,,0.00,Wunderground v.1.15,2013-05-21 18:10:00,
2013-05-21 14:16:00,82.6,65.3,29.90,SW,232,1.0,3.0,56,0.00,,,0.00,Wunderground v.1.15,2013-05-21 18:16:00,
2013-05-21 14:22:00,80.3,63.2,29.90,SW,235,1.0,2.0,56,0.00,,,0.00,Wunderground v.1.15,2013-05-21 18:22:00,
2013-05-21 14:28:00,78.6,62.6,29.91,ENE,71,1.0,2.0,58,0.00,,,0.00,Wunderground v.1.15,2013-05-21 18:28:00,
2013-05-21 14:34:00,76.6,61.7,29.92,SE,142,1.0,1.0,60,0.00,,,0.00,Wunderground v.1.15,2013-05-21 18:34:00,
2013-05-21 14:40:00,75.1,61.2,29.91,SE,134,1.0,1.0,62,0.00,,,0.00,Wunderground v.1.15,2013-05-21 18:40:00,
2013-05-21 14:46:00,74.1,60.2,29.92,North,351,1.0,3.0,62,0.00,,,0.00,Wunderground v.1.15,2013-05-21 18:46:00,
2013-05-21 14:52:00,73.0,59.7,29.92,ESE,113,1.0,1.0,63,0.00,,,0.00,Wunderground v.1.15,2013-05-21 18:52:00,
2013-05-21 14:58:00,72.1,58.8,29.92,SSW,205,1.0,1.0,63,0.00,,,0.00,Wunderground v.1.15,2013-05-21 18:58:00,
2013-05-21 15:04:00,70.4,57.6,29.92,NW,308,1.0,3.0,64,0.00,,,0.00,Wunderground v.1.15,2013-05-21 19:04:00,
2013-05-21 15:10:00,69.5,57.6,29.93,South,170,1.0,1.0,66,0.00,,,0.00,Wunderground v.1.15,2013-05-21 19:10:00,
2013-05-21 15:16:00,69.0,57.6,29.93,WNW,291,1.0,2.0,67,0.00,,,0.00,Wunderground v.1.15,2013-05-21 19:16:00,
2013-05-21 15:22:00,68.6,56.8,29.93,ESE,106,1.0,2.0,66,0.00,,,0.00,Wunderground v.1.15,2013-05-21 19:22:00,
2013-05-21 15:28:00,68.2,56.8,29.93,ESE,121,1.0,4.0,67,0.00,,,0.00,Wunderground v.1.15,2013-05-21 19:28:00,
2013-05-21 15:34:00,67.5,57.0,29.93,SSW,194,0.0,1.0,69,0.00,,,0.00,Wunderground v.1.15,2013-05-21 19:34:00,
2013-05-21 15:40:00,66.3,56.2,29.93,West,280,0.0,0.0,70,0.00,,,0.00,Wunderground v.1.15,2013-05-21 19:40:00,
2013-05-21 15:46:00,65.9,56.2,29.94,NW,310,1.0,1.0,71,0.00,,,0.00,Wunderground v.1.15,2013-05-21 19:46:00,
2013-05-21 15:52:00,65.5,55.5,29.94,ENE,78,1.0,1.0,70,0.00,,,0.00,Wunderground v.1.15,2013-05-21 19:52:00,
2013-05-21 15:58:00,65.8,55.7,29.94,ENE,68,1.0,1.0,70,0.00,,,0.00,Wunderground v.1.15,2013-05-21 19:58:00,
2013-05-21 16:04:00,66.1,55.6,29.95,WSW,254,0.0,1.0,69,0.00,,,0.00,Wunderground v.1.15,2013-05-21 20:04:00,
2013-05-21 16:10:00,65.9,55.4,29.94,West,259,0.0,0.0,69,0.00,,,0.00,Wunderground v.1.15,2013-05-21 20:10:00,
2013-05-21 16:16:00,64.8,54.8,29.94,East,100,1.0,2.0,70,0.00,,,0.00,Wunderground v.1.15,2013-05-21 20:16:00,
2013-05-21 16:22:00,64.3,54.3,29.95,SE,128,1.0,3.0,70,0.00,,,0.00,Wunderground v.1.15,2013-05-21 20:22:00,
2013-05-21 16:28:00,63.4,54.2,29.95,ESE,109,0.0,3.0,72,0.00,,,0.00,Wunderground v.1.15,2013-05-21 20:28:00,
2013-05-21 16:34:00,62.7,53.5,29.95,SSW,213,0.0,1.0,72,0.00,,,0.00,Wunderground v.1.15,2013-05-21 20:34:00,
2013-05-21 16:40:00,62.0,53.6,29.96,ENE,67,0.0,0.0,74,0.00,,,0.00,Wunderground v.1.15,2013-05-21 20:40:00,
2013-05-21 16:46:00,61.1,53.1,29.96,ESE,116,1.0,3.0,75,0.00,,,0.00,Wunderground v.1.15,2013-05-21 20:46:00,
2013-05-21 16:52:00,60.3,52.7,29.97,SSE,165,1.0,1.0,76,0.00,,,0.00,Wunderground v.1.15,2013-05-21 20:52:00,
2013-05-21 16:58:00,59.6,52.4,29.97,ESE,114,1.0,2.0,77,0.00,,,0.00,Wunderground v.1.15,2013-05-21 20:58:00,
2013-05-21 17:04:00,59.1,52.2,29.97,SE,126,1.0,1.0,78,0.00,,,0.00,Wunderground v.1.15,2013-05-21 21:04:00,
2013-05-21 17:10:00,59.0,52.1,29.98,SE,132,0.0,0.0,78,0.00,,,0.00,Wunderground v.1.15,2013-05-21 21:10:00,
2013-05-21 17:16:00,59.0,52.1,29.98,ESE,110,1.0,1.0,78,0.00,,,0.00,Wunderground v.1.15,2013-05-21 21:16:00,
2013-05-21 17:22:00,58.8,52.0,29.97,ENE,78,0.0,1.0,78,0.00,,,0.00,Wunderground v.1.15,2013-05-21 21:22:00,
2013-05-21 17:28:00,58.5,52.0,29.98,SSW,212,0.0,1.0,79,0.00,,,0.00,Wunderground v.1.15,2013-05-21 21:28:00,
2013-05-21 17:34:00,58.1,51.6,29.98,NNW,334,1.0,1.0,79,0.00,,,0.00,Wunderground v.1.15,2013-05-21 21:34:00,
2013-05-21 17:40:00,57.7,51.6,29.98,SSE,150,1.0,1.0,80,0.00,,,0.00,Wunderground v.1.15,2013-05-21 21:40:00,
2013-05-21 17:46:00,57.1,51.0,29.98,SSW,193,1.0,2.0,80,0.00,,,0.00,Wunderground v.1.15,2013-05-21 21:46:00,
2013-05-21 17:52:00,57.0,51.2,29.98,South,177,1.0,1.0,81,0.00,,,0.00,Wunderground v.1.15,2013-05-21 21:52:00,
2013-05-21 17:58:00,56.6,50.8,29.99,WNW,303,1.0,2.0,81,0.00,,,0.00,Wunderground v.1.15,2013-05-21 21:58:00,
2013-05-21 18:04:00,56.4,51.0,30.00,North,355,0.0,3.0,82,0.00,,,0.00,Wunderground v.1.15,2013-05-21 22:04:00,
2013-05-21 18:10:00,56.3,50.9,30.01,East,101,0.0,0.0,82,0.00,,,0.00,Wunderground v.1.15,2013-05-21 22:10:00,
2013-05-21 18:16:00,56.1,50.7,30.02,SE,125,0.0,1.0,82,0.00,,,0.00,Wunderground v.1.15,2013-05-21 22:16:00,
2013-05-21 18:22:00,55.8,50.4,30.02,ESE,108,0.0,1.0,82,0.00,,,0.00,Wunderground v.1.15,2013-05-21 22:22:00,
2013-05-21 18:28:00,55.6,50.2,30.02,NW,325,0.0,6.0,82,0.00,,,0.00,Wunderground v.1.15,2013-05-21 22:28:00,
2013-05-21 18:34:00,55.6,50.5,30.02,East,96,0.0,0.0,83,0.00,,,0.00,Wunderground v.1.15,2013-05-21 22:34:00,
2013-05-21 18:40:00,55.4,50.3,30.04,SSW,202,0.0,0.0,83,0.00,,,0.00,Wunderground v.1.15,2013-05-21 22:40:00,
2013-05-21 18:46:00,55.5,50.4,30.03,ESE,104,0.0,0.0,83,0.00,,,0.00,Wunderground v.1.15,2013-05-21 22:46:00,
2013-05-21 18:52:00,55.5,50.1,30.03,South,188,0.0,0.0,82,0.00,,,0.00,Wunderground v.1.15,2013-05-21 22:52:00,
2013-05-21 18:58:00,55.5,50.1,30.05,South,171,0.0,0.0,82,0.00,,,0.00,Wunderground v.1.15,2013-05-21 22:58:00,
2013-05-21 19:04:00,55.4,50.3,30.04,South,171,0.0,0.0,83,0.00,,,0.01,Wunderground v.1.15,2013-05-21 23:04:00,
2013-05-21 19:10:00,55.2,51.1,30.04,ESE,116,0.0,0.0,86,0.13,,,0.03,Wunderground v.1.15,2013-05-21 23:10:00,
2013-05-21 19:16:00,55.0,50.9,30.02,East,89,0.0,1.0,86,0.06,,,0.03,Wunderground v.1.15,2013-05-21 23:16:00,
2013-05-21 19:22:00,54.7,50.9,30.02,ESE,114,0.0,0.0,87,0.04,,,0.03,Wunderground v.1.15,2013-05-21 23:22:00,
2013-05-21 19:28:00,54.4,50.6,30.02,ESE,114,0.0,1.0,87,0.00,,,0.03,Wunderground v.1.15,2013-05-21 23:28:00,
2013-05-21 19:34:00,54.1,50.3,30.02,NE,48,0.0,3.0,87,0.00,,,0.03,Wunderground v.1.15,2013-05-21 23:34:00,
2013-05-21 19:40:00,53.8,50.0,30.02,SW,223,1.0,1.0,87,0.00,,,0.03,Wunderground v.1.15,2013-05-21 23:40:00,
2013-05-21 19:46:00,53.5,50.0,30.02,NNE,22,1.0,1.0,88,0.00,,,0.03,Wunderground v.1.15,2013-05-21 23:46:00,
2013-05-21 19:52:00,53.4,49.9,30.02,North,360,0.0,0.0,88,0.00,,,0.03,Wunderground v.1.15,2013-05-21 23:52:00,
2013-05-21 19:58:00,53.5,50.0,30.03,ESE,107,0.0,2.0,88,0.00,,,0.03,Wunderground v.1.15,2013-05-21 23:58:00,
2013-05-21 20:04:00,53.3,49.8,30.03,WNW,302,0.0,5.0,88,0.00,,,0.03,Wunderground v.1.15,2013-05-22 00:04:00,
2013-05-21 20:10:00,53.4,49.9,30.04,WNW,301,0.0,0.0,88,0.00,,,0.03,Wunderground v.1.15,2013-05-22 00:10:00,
2013-05-21 20:16:00,53.3,49.8,30.04,WSW,246,0.0,0.0,88,0.00,,,0.03,Wunderground v.1.15,2013-05-22 00:16:00,
2013-05-21 20:22:00,53.2,49.7,30.03,SE,125,0.0,0.0,88,0.00,,,0.03,Wunderground v.1.15,2013-05-22 00:22:00,
2013-05-21 20:28:00,53.3,50.1,30.02,SE,125,0.0,0.0,89,0.00,,,0.03,Wunderground v.1.15,2013-05-22 00:28:00,
2013-05-21 20:34:00,53.5,50.3,30.03,SE,125,0.0,0.0,89,0.00,,,0.03,Wunderground v.1.15,2013-05-22 00:34:00,
2013-05-21 20:40:00,53.6,50.4,30.02,SE,125,0.0,0.0,89,0.00,,,0.03,Wunderground v.1.15,2013-05-22 00:40:00,
2013-05-21 20:46:00,53.5,50.3,30.01,SE,125,0.0,0.0,89,0.00,,,0.03,Wunderground v.1.15,2013-05-22 00:46:00,
2013-05-21 20:52:00,53.4,49.9,30.02,SE,128,0.0,2.0,88,0.00,,,0.03,Wunderground v.1.15,2013-05-22 00:52:00,
2013-05-21 20:58:00,53.2,49.7,30.02,WSW,257,0.0,2.0,88,0.00,,,0.03,Wunderground v.1.15,2013-05-22 00:58:00,
2013-05-21 21:04:00,53.1,49.9,30.01,SE,140,0.0,0.0,89,0.00,,,0.03,Wunderground v.1.15,2013-05-22 01:04:00,
2013-05-21 21:10:00,53.1,49.9,30.02,SE,140,0.0,0.0,89,0.00,,,0.03,Wunderground v.1.15,2013-05-22 01:10:00,
2013-05-21 21:16:00,53.2,50.0,30.01,SE,140,0.0,0.0,89,0.00,,,0.03,Wunderground v.1.15,2013-05-22 01:16:00,
2013-05-21 21:22:00,53.3,50.1,30.01,SE,140,0.0,0.0,89,0.00,,,0.03,Wunderground v.1.15,2013-05-22 01:22:00,
2013-05-21 21:28:00,53.2,49.7,30.01,SE,140,0.0,0.0,88,0.00,,,0.03,Wunderground v.1.15,2013-05-22 01:28:00,
2013-05-21 21:34:00,53.1,49.6,30.01,SE,143,0.0,1.0,88,0.00,,,0.03,Wunderground v.1.15,2013-05-22 01:34:00,
2013-05-21 21:40:00,52.9,49.4,30.00,South,173,0.0,0.0,88,0.00,,,0.03,Wunderground v.1.15,2013-05-22 01:40:00,
2013-05-21 21:46:00,52.8,49.3,30.01,ESE,116,0.0,0.0,88,0.00,,,0.03,Wunderground v.1.15,2013-05-22 01:46:00,
2013-05-21 21:52:00,52.9,49.4,30.01,SSE,168,0.0,0.0,88,0.00,,,0.03,Wunderground v.1.15,2013-05-22 01:52:00,
2013-05-21 21:58:00,52.8,49.3,30.01,WSW,250,0.0,0.0,88,0.00,,,0.03,Wunderground v.1.15,2013-05-22 01:58:00,
2013-05-21 22:04:00,52.7,49.2,30.02,SSW,210,0.0,0.0,88,0.00,,,0.03,Wunderground v.1.15,2013-05-22 02:04:00,
2013-05-21 22:10:00,52.8,49.6,30.02,SSW,210,0.0,0.0,89,0.00,,,0.03,Wunderground v.1.15,2013-05-22 02:10:00,
2013-05-21 22:16:00,52.9,49.7,30.02,SSW,210,0.0,2.0,89,0.00,,,0.03,Wunderground v.1.15,2013-05-22 02:16:00,
2013-05-21 22:22:00,52.8,49.6,30.02,SSW,210,0.0,0.0,89,0.00,,,0.03,Wunderground v.1.15,2013-05-22 02:22:00,
2013-05-21 22:28:00,52.7,49.2,30.02,ESE,118,0.0,1.0,88,0.00,,,0.03,Wunderground v.1.15,2013-05-22 02:28:00,
2013-05-21 22:34:00,52.7,49.5,30.02,ESE,118,0.0,0.0,89,0.00,,,0.03,Wunderground v.1.15,2013-05-22 02:34:00,
2013-05-21 22:40:00,52.8,49.6,30.00,ESE,118,0.0,0.0,89,0.00,,,0.03,Wunderground v.1.15,2013-05-22 02:40:00,
2013-05-21 22:46:00,52.7,49.5,29.99,ESE,113,0.0,4.0,89,0.00,,,0.03,Wunderground v.1.15,2013-05-22 02:46:00,
2013-05-21 22:52:00,52.7,49.5,29.99,ESE,113,0.0,0.0,89,0.00,,,0.03,Wunderground v.1.15,2013-05-22 02:52:00,
2013-05-21 22:58:00,52.7,49.5,30.00,ESE,113,0.0,1.0,89,0.00,,,0.03,Wunderground v.1.15,2013-05-22 02:58:00,
2013-05-21 23:04:00,52.6,49.4,30.00,ESE,113,0.0,1.0,89,0.00,,,0.03,Wunderground v.1.15,2013-05-22 03:04:00,
2013-05-21 23:10:00,52.7,49.5,30.01,ESE,113,0.0,0.0,89,0.00,,,0.03,Wunderground v.1.15,2013-05-22 03:10:00,
2013-05-21 23:16:00,52.7,49.5,30.02,ESE,113,0.0,0.0,89,0.00,,,0.03,Wunderground v.1.15,2013-05-22 03:16:00,
2013-05-21 23:22:00,52.8,49.6,30.02,ESE,113,0.0,0.0,89,0.00,,,0.03,Wunderground v.1.15,2013-05-22 03:22:00,
2013-05-21 23:28:00,52.8,49.6,30.02,ESE,113,0.0,0.0,89,0.00,,,0.03,Wunderground v.1.15,2013-05-22 03:28:00,
2013-05-21 23:34:00,52.8,49.6,30.03,ESE,113,0.0,0.0,89,0.00,,,0.03,Wunderground v.1.15,2013-05-22 03:34:00,
2013-05-21 23:40:00,52.8,49.6,30.03,ESE,114,0.0,0.0,89,0.00,,,0.03,Wunderground v.1.15,2013-05-22 03:40:00,
2013-05-21 23:46:00,52.8,49.6,30.04,East,86,0.0,1.0,89,0.00,,,0.03,Wunderground v.1.15,2013-05-22 03:46:00,
2013-05-21 23:52:00,52.8,49.6,30.04,SW,225,0.0,0.0,89,0.00,,,0.03,Wunderground v.1.15,2013-05-22 03:52:00,
2013-05-21 23:58:00,52.7,49.8,30.05,South,191,0.0,1.0,90,0.00,,,0.03,Wunderground v.1.15,2013-05-22 03:58:00,